createdAt,value
2018-11-23T00:01:38.938Z,14.97
2018-11-23T00:04:13.377Z,13.60
2018-11-23T00:06:42.802Z,13.90
2018-11-23T00:09:12.227Z,14.13
2018-11-23T00:11:41.677Z,14.07
2018-11-23T00:14:11.085Z,14.37
2018-11-23T00:16:40.581Z,15.30
2018-11-23T00:19:09.990Z,15.40
2018-11-23T00:21:39.420Z,14.63
2018-11-23T00:24:08.841Z,14.60
2018-11-23T00:26:43.321Z,14.97
2018-11-23T00:29:12.741Z,14.67
2018-11-23T00:31:42.162Z,14.13
2018-11-23T00:34:16.741Z,14.57
2018-11-23T00:36:46.142Z,13.73
2018-11-23T00:39:15.558Z,14.30
2018-11-23T00:41:45.010Z,14.23
2018-11-23T00:44:14.508Z,13.60
2018-11-23T00:46:44.177Z,14.00
2018-11-23T00:49:13.662Z,15.03
2018-11-23T00:51:43.105Z,14.00
2018-11-23T00:54:12.572Z,14.07
2018-11-23T00:56:41.994Z,13.30
2018-11-23T00:59:11.477Z,13.43
2018-11-23T01:02:11.746Z,14.07
2018-11-23T01:04:41.190Z,14.47
2018-11-23T01:07:10.598Z,15.00
2018-11-23T01:09:40.101Z,15.20
2018-11-23T01:12:09.510Z,16.23
2018-11-23T01:14:39.231Z,14.80
2018-11-23T01:17:08.839Z,15.57
2018-11-23T01:19:38.551Z,14.67
2018-11-23T01:22:08.163Z,15.00
2018-11-23T01:24:37.766Z,15.43
2018-11-23T01:27:07.426Z,13.60
2018-11-23T01:29:37.072Z,14.60
2018-11-23T01:32:06.727Z,14.47
2018-11-23T01:34:36.346Z,15.13
2018-11-23T01:37:06.120Z,14.23
2018-11-23T01:39:35.810Z,14.30
2018-11-23T01:42:05.570Z,14.13
2018-11-23T01:44:40.470Z,13.93
2018-11-23T01:47:10.474Z,14.90
2018-11-23T01:49:40.060Z,15.17
2018-11-23T01:52:09.688Z,14.67
2018-11-23T01:54:39.407Z,14.07
2018-11-23T01:57:09.109Z,13.90
2018-11-23T01:59:38.867Z,14.03
2018-11-23T02:02:09.303Z,14.73
2018-11-23T02:04:38.910Z,14.50
2018-11-23T02:07:09.146Z,14.30
2018-11-23T02:09:38.750Z,14.90
2018-11-23T02:12:08.650Z,14.00
2018-11-23T02:14:38.311Z,15.47
2018-11-23T02:17:07.931Z,14.50
2018-11-23T02:19:42.629Z,14.70
2018-11-23T02:22:12.243Z,14.03
2018-11-23T02:24:41.971Z,14.87
2018-11-23T02:27:11.599Z,14.33
2018-11-23T02:29:41.250Z,14.73
2018-11-23T02:32:10.875Z,14.43
2018-11-23T02:34:40.528Z,13.80
2018-11-23T02:37:10.130Z,14.57
2018-11-23T02:39:40.158Z,14.63
2018-11-23T02:42:09.784Z,14.60
2018-11-23T02:44:39.389Z,14.63
2018-11-23T02:47:09.086Z,14.57
2018-11-23T02:49:38.980Z,15.70
2018-11-23T02:52:08.658Z,15.07
2018-11-23T02:54:38.254Z,15.20
2018-11-23T02:57:07.974Z,15.50
2018-11-23T02:59:37.570Z,15.23
2018-11-23T03:02:12.206Z,14.37
2018-11-23T03:04:42.018Z,14.67
2018-11-23T03:07:11.634Z,14.43
2018-11-23T03:09:41.278Z,15.63
2018-11-23T03:12:10.942Z,16.47
2018-11-23T03:14:40.574Z,16.13
2018-11-23T03:17:10.166Z,16.37
2018-11-23T03:19:39.804Z,15.77
2018-11-23T03:22:09.474Z,14.67
2018-11-23T03:24:39.122Z,14.33
2018-11-23T03:27:08.790Z,13.80
2018-11-23T03:29:43.518Z,14.73
2018-11-23T03:32:13.142Z,15.70
2018-11-23T03:34:42.750Z,15.00
2018-11-23T03:37:12.383Z,14.67
2018-11-23T03:39:42.161Z,14.53
2018-11-23T03:42:11.814Z,15.80
2018-11-23T03:44:41.411Z,14.80
2018-11-23T03:47:11.056Z,15.67
2018-11-23T03:49:40.655Z,14.00
2018-11-23T03:52:10.289Z,15.00
2018-11-23T03:54:39.919Z,15.03
2018-11-23T03:57:09.590Z,14.30
2018-11-23T03:59:39.186Z,14.43
2018-11-23T04:02:13.862Z,14.73
2018-11-23T04:04:43.548Z,15.17
2018-11-23T04:07:13.174Z,15.20
2018-11-23T04:09:42.865Z,15.40
2018-11-23T04:12:12.478Z,15.57
2018-11-23T04:14:42.210Z,14.87
2018-11-23T04:17:11.904Z,14.77
2018-11-23T04:19:41.586Z,15.03
2018-11-23T04:22:11.353Z,15.07
2018-11-23T04:24:41.026Z,14.10
2018-11-23T04:27:10.728Z,14.53
2018-11-23T04:29:40.391Z,14.67
2018-11-23T04:32:10.014Z,14.27
2018-11-23T04:34:39.616Z,14.70
2018-11-23T04:37:09.244Z,15.07
2018-11-23T04:39:38.863Z,13.83
2018-11-23T04:42:08.612Z,14.33
2018-11-23T04:44:38.271Z,15.63
2018-11-23T04:47:08.370Z,14.77
2018-11-23T04:49:38.012Z,15.07
2018-11-23T04:52:07.750Z,15.33
2018-11-23T04:54:42.431Z,14.90
2018-11-23T04:57:12.171Z,14.27
2018-11-23T04:59:41.798Z,15.20
2018-11-23T05:02:11.409Z,15.20
2018-11-23T05:04:41.030Z,14.47
2018-11-23T05:07:10.651Z,14.37
2018-11-23T05:09:45.358Z,14.80
2018-11-23T05:12:14.986Z,15.67
2018-11-23T05:14:44.615Z,14.87
2018-11-23T05:17:14.214Z,15.20
2018-11-23T05:19:43.843Z,14.53
2018-11-23T05:22:13.494Z,17.13
2018-11-23T05:24:43.118Z,14.73
2018-11-23T05:27:12.872Z,15.10
2018-11-23T05:29:42.513Z,15.83
2018-11-23T05:32:12.129Z,15.10
2018-11-23T05:34:42.047Z,14.77
2018-11-23T05:37:11.703Z,15.23
2018-11-23T05:39:41.476Z,13.97
2018-11-23T05:42:11.134Z,14.40
2018-11-23T05:44:40.940Z,14.87
2018-11-23T05:47:10.558Z,16.43
2018-11-23T05:49:40.170Z,15.43
2018-11-23T05:52:09.803Z,15.23
2018-11-23T05:54:39.458Z,15.03
2018-11-23T05:57:09.182Z,15.03
2018-11-23T05:59:38.890Z,15.40
2018-11-23T06:02:08.571Z,15.10
2018-11-23T06:04:38.269Z,15.20
2018-11-23T06:07:12.933Z,15.83
2018-11-23T06:09:42.583Z,15.90
2018-11-23T06:12:12.189Z,15.37
2018-11-23T06:14:41.807Z,16.43
2018-11-23T06:17:11.466Z,15.33
2018-11-23T06:19:41.054Z,15.70
2018-11-23T06:22:10.651Z,15.10
2018-11-23T06:24:40.562Z,15.23
2018-11-23T06:27:10.188Z,15.13
2018-11-23T06:29:40.014Z,14.90
2018-11-23T06:32:21.028Z,15.27
2018-11-23T06:34:50.685Z,14.57
2018-11-23T06:37:25.443Z,14.50
2018-11-23T06:39:55.413Z,14.63
2018-11-23T06:42:25.046Z,14.83
2018-11-23T06:44:54.786Z,14.50
2018-11-23T06:47:24.604Z,14.70
2018-11-23T06:49:54.286Z,14.70
2018-11-23T06:52:23.900Z,15.90
2018-11-23T06:54:58.769Z,16.37
2018-11-23T06:57:33.359Z,14.67
2018-11-23T07:00:03.050Z,14.33
2018-11-23T07:02:32.647Z,14.07
2018-11-23T07:05:02.365Z,14.87
2018-11-23T07:07:32.006Z,14.80
2018-11-23T07:10:01.719Z,15.23
2018-11-23T07:12:31.359Z,15.17
2018-11-23T07:15:08.268Z,14.47
2018-11-23T07:17:38.267Z,14.03
2018-11-23T07:20:14.076Z,14.20
2018-11-23T07:22:45.693Z,15.37
2018-11-23T07:25:20.458Z,15.07
2018-11-23T07:27:50.063Z,16.60
2018-11-23T07:30:21.650Z,16.47
2018-11-23T07:32:51.399Z,15.93
2018-11-23T07:35:21.042Z,15.80
2018-11-23T07:37:50.683Z,15.63
2018-11-23T07:40:33.371Z,16.03
2018-11-23T07:43:02.991Z,16.20
2018-11-23T07:45:37.672Z,16.70
2018-11-23T07:48:08.523Z,16.20
2018-11-23T07:50:38.503Z,16.13
2018-11-23T07:53:08.663Z,16.30
2018-11-23T07:55:38.440Z,14.73
2018-11-23T07:58:08.912Z,16.50
2018-11-23T08:00:38.534Z,17.70
2018-11-23T08:03:08.187Z,17.13
2018-11-23T08:05:37.906Z,18.07
2018-11-23T08:08:12.515Z,18.13
2018-11-23T08:10:46.368Z,17.47
2018-11-23T08:13:15.977Z,17.73
2018-11-23T08:15:45.733Z,18.03
2018-11-23T08:18:15.335Z,17.77
2018-11-23T08:20:44.938Z,18.60
2018-11-23T08:23:19.598Z,17.60
2018-11-23T08:25:49.279Z,17.40
2018-11-23T08:28:18.906Z,20.20
2018-11-23T08:30:48.535Z,22.23
2018-11-23T08:33:18.547Z,28.57
2018-11-23T08:35:48.135Z,27.20
2018-11-23T08:38:17.849Z,20.37
2018-11-23T08:40:47.558Z,26.37
2018-11-23T08:43:17.533Z,22.93
2018-11-23T08:45:47.167Z,16.67
2018-11-23T08:48:16.942Z,17.27
2018-11-23T08:50:46.564Z,16.47
2018-11-23T08:53:16.303Z,15.70
2018-11-23T08:55:45.926Z,15.60
2018-11-23T08:58:15.606Z,17.03
2018-11-23T09:00:45.355Z,17.17
2018-11-23T09:03:15.039Z,17.33
2018-11-23T09:05:44.744Z,15.97
2018-11-23T09:08:14.351Z,16.03
2018-11-23T09:10:44.099Z,15.63
2018-11-23T09:13:13.779Z,16.97
2018-11-23T09:15:43.415Z,16.10
2018-11-23T09:18:13.122Z,16.63
2018-11-23T09:20:42.812Z,16.30
2018-11-23T09:23:12.609Z,16.37
2018-11-23T09:25:42.510Z,17.30
2018-11-23T09:28:12.126Z,16.87
2018-11-23T09:30:41.854Z,17.63
2018-11-23T09:33:16.598Z,17.23
2018-11-23T09:35:46.201Z,18.13
2018-11-23T09:38:15.943Z,16.37
2018-11-23T09:40:45.696Z,18.63
2018-11-23T09:43:15.574Z,17.80
2018-11-23T09:45:45.228Z,17.80
2018-11-23T09:48:14.962Z,17.33
2018-11-23T09:50:44.663Z,17.23
2018-11-23T09:53:14.338Z,17.63
2018-11-23T09:55:44.078Z,18.40
2018-11-23T09:58:13.703Z,17.17
2018-11-23T10:00:43.391Z,17.67
2018-11-23T10:03:13.159Z,17.40
2018-11-23T10:05:42.906Z,17.13
2018-11-23T10:08:12.587Z,17.27
2018-11-23T10:10:42.207Z,18.20
2018-11-23T10:13:11.991Z,17.70
2018-11-23T10:15:46.674Z,17.20
2018-11-23T10:18:16.304Z,18.27
2018-11-23T10:20:45.959Z,18.33
2018-11-23T10:23:20.700Z,18.57
2018-11-23T10:25:50.566Z,18.33
2018-11-23T10:28:20.345Z,17.60
2018-11-23T10:30:50.159Z,18.17
2018-11-23T10:33:20.102Z,18.80
2018-11-23T10:35:49.875Z,20.30
2018-11-23T10:38:19.693Z,18.70
2018-11-23T10:40:49.495Z,18.43
2018-11-23T10:43:19.455Z,19.27
2018-11-23T10:45:49.399Z,19.37
2018-11-23T10:48:19.121Z,17.93
2018-11-23T10:50:48.931Z,18.00
2018-11-23T10:53:18.870Z,22.10
2018-11-23T10:55:48.765Z,18.00
2018-11-23T10:58:19.269Z,17.63
2018-11-23T11:00:49.557Z,19.27
2018-11-23T11:03:34.019Z,16.57
2018-11-23T11:06:11.482Z,18.73
2018-11-23T11:08:41.893Z,17.20
2018-11-23T11:11:13.801Z,17.70
2018-11-23T11:13:42.065Z,18.50
2018-11-23T11:16:12.246Z,18.63
2018-11-23T11:18:42.134Z,22.43
2018-11-23T11:21:12.061Z,36.63
2018-11-23T11:23:41.893Z,34.00
2018-11-23T11:26:11.839Z,22.20
2018-11-23T11:28:41.624Z,16.10
2018-11-23T11:31:16.384Z,16.87
2018-11-23T11:33:46.175Z,16.07
2018-11-23T11:36:15.865Z,15.60
2018-11-23T11:38:46.302Z,15.93
2018-11-23T11:41:15.330Z,16.13
2018-11-23T11:43:50.031Z,14.83
2018-11-23T11:46:19.763Z,15.67
2018-11-23T11:48:49.458Z,15.23
2018-11-23T11:51:19.082Z,15.70
2018-11-23T11:53:48.827Z,15.90
2018-11-23T11:56:18.472Z,16.40
2018-11-23T11:58:48.367Z,15.90
2018-11-23T12:01:18.007Z,16.23
2018-11-23T12:03:47.667Z,15.43
2018-11-23T12:06:17.310Z,15.23
2018-11-23T12:08:47.006Z,15.67
2018-11-23T12:11:21.991Z,16.00
2018-11-23T12:13:51.678Z,15.67
2018-11-23T12:16:21.314Z,15.37
2018-11-23T12:18:56.014Z,18.33
2018-11-23T12:21:25.599Z,17.90
2018-11-23T12:23:55.222Z,16.17
2018-11-23T12:26:29.911Z,19.40
2018-11-23T12:28:59.727Z,21.43
2018-11-23T12:31:29.462Z,17.27
2018-11-23T12:33:59.203Z,17.37
2018-11-23T12:36:29.230Z,16.17
2018-11-23T12:38:58.879Z,23.43
2018-11-23T12:41:33.619Z,26.13
2018-11-23T12:44:03.235Z,18.03
2018-11-23T12:46:32.854Z,17.10
2018-11-23T12:49:02.509Z,16.53
2018-11-23T12:51:32.191Z,16.53
2018-11-23T12:54:01.868Z,17.00
2018-11-23T12:56:31.560Z,18.67
2018-11-23T12:59:01.299Z,16.50
2018-11-23T13:01:30.972Z,16.57
2018-11-23T13:04:00.785Z,16.73
2018-11-23T13:06:30.389Z,16.90
2018-11-23T13:09:07.478Z,16.00
2018-11-23T13:11:39.540Z,16.70
2018-11-23T13:14:09.712Z,16.47
2018-11-23T13:16:44.323Z,16.77
2018-11-23T13:19:13.958Z,15.40
2018-11-23T13:21:43.598Z,15.30
2018-11-23T13:24:13.370Z,16.27
2018-11-23T13:26:48.055Z,15.30
2018-11-23T13:29:17.785Z,15.73
2018-11-23T13:31:47.490Z,16.00
2018-11-23T13:34:17.192Z,16.67
2018-11-23T13:36:46.891Z,17.20
2018-11-23T13:39:16.594Z,15.73
2018-11-23T13:41:46.215Z,15.73
2018-11-23T13:44:15.843Z,16.23
2018-11-23T13:46:45.504Z,16.13
2018-11-23T13:49:15.158Z,17.57
2018-11-23T13:51:44.774Z,16.70
2018-11-23T13:54:14.486Z,16.87
2018-11-23T13:56:44.124Z,16.80
2018-11-23T13:59:13.855Z,17.87
2018-11-23T14:01:43.458Z,16.53
2018-11-23T14:04:13.646Z,16.23
2018-11-23T14:06:48.291Z,15.57
2018-11-23T14:09:17.926Z,15.97
2018-11-23T14:11:47.551Z,15.43
2018-11-23T14:14:17.330Z,13.13
2018-11-23T14:16:47.047Z,10.90
2018-11-23T14:19:16.730Z,10.77
2018-11-23T14:21:46.353Z,11.10
2018-11-23T14:24:16.338Z,11.10
2018-11-23T14:26:47.006Z,12.55
2018-11-23T14:29:16.854Z,11.63
2018-11-23T14:31:46.530Z,11.50
2018-11-23T14:34:16.287Z,11.03
2018-11-23T14:36:45.951Z,9.80
2018-11-23T14:39:15.703Z,9.50
2018-11-23T14:41:45.409Z,8.23
2018-11-23T14:44:15.063Z,10.13
2018-11-23T14:46:44.838Z,8.30
2018-11-23T14:49:14.479Z,8.50
2018-11-23T14:51:44.176Z,8.70
2018-11-23T14:54:13.804Z,9.53
2018-11-23T14:56:43.550Z,9.07
2018-11-23T14:59:13.236Z,10.10
2018-11-23T15:01:43.007Z,9.10
2018-11-23T15:04:12.747Z,9.80
2018-11-23T15:06:42.436Z,8.73
2018-11-23T15:09:12.352Z,9.37
2018-11-23T15:11:47.066Z,8.97
2018-11-23T15:14:16.723Z,9.47
2018-11-23T15:16:46.327Z,9.60
2018-11-23T15:19:16.631Z,9.53
2018-11-23T15:21:51.295Z,9.33
2018-11-23T15:24:21.338Z,9.40
2018-11-23T15:26:56.370Z,9.20
2018-11-23T15:29:31.639Z,10.17
2018-11-23T15:32:06.287Z,8.90
2018-11-23T15:34:35.926Z,9.43
2018-11-23T15:37:06.130Z,8.63
2018-11-23T15:39:35.858Z,9.17
2018-11-23T15:42:05.539Z,9.13
2018-11-23T15:44:35.271Z,9.33
2018-11-23T15:47:04.986Z,8.80
2018-11-23T15:49:34.718Z,8.70
2018-11-23T15:52:04.999Z,9.00
2018-11-23T15:54:34.675Z,8.80
2018-11-23T15:57:04.367Z,9.13
2018-11-23T15:59:34.155Z,9.03
2018-11-23T16:02:04.596Z,10.13
2018-11-23T16:04:39.537Z,9.03
2018-11-23T16:07:11.106Z,9.37
2018-11-23T16:09:45.758Z,11.27
2018-11-23T16:12:15.503Z,9.83
2018-11-23T16:14:45.286Z,13.13
2018-11-23T16:17:14.896Z,13.10
2018-11-23T16:19:44.634Z,10.87
2018-11-23T16:22:14.344Z,9.60
2018-11-23T16:24:44.054Z,7.60
2018-11-23T16:27:13.690Z,7.47
2018-11-23T16:29:43.374Z,7.60
2018-11-23T16:32:12.994Z,7.63
2018-11-23T16:34:42.637Z,7.80
2018-11-23T16:37:12.230Z,7.37
2018-11-23T16:39:41.842Z,8.03
2018-11-23T16:42:11.585Z,7.30
2018-11-23T16:44:41.499Z,7.67
2018-11-23T16:47:11.099Z,7.80
2018-11-23T16:49:45.914Z,7.93
2018-11-23T16:52:15.489Z,7.23
2018-11-23T16:54:45.138Z,7.90
2018-11-23T16:57:14.837Z,7.43
2018-11-23T16:59:44.430Z,7.53
2018-11-23T17:02:14.027Z,7.27
2018-11-23T17:04:43.646Z,7.27
2018-11-23T17:07:13.259Z,6.30
2018-11-23T17:09:44.652Z,7.50
2018-11-23T17:12:14.300Z,7.43
2018-11-23T17:14:44.033Z,7.10
2018-11-23T17:17:13.641Z,7.23
2018-11-23T17:19:43.606Z,7.20
2018-11-23T17:22:14.395Z,7.33
2018-11-23T17:24:49.195Z,7.17
2018-11-23T17:27:18.871Z,7.73
2018-11-23T17:29:48.490Z,7.10
2018-11-23T17:32:18.088Z,7.00
2018-11-23T17:34:47.763Z,7.10
2018-11-23T17:37:17.767Z,7.10
2018-11-23T17:39:47.372Z,6.80
2018-11-23T17:42:17.007Z,7.40
2018-11-23T17:44:46.847Z,6.60
2018-11-23T17:47:21.527Z,7.60
2018-11-23T17:49:51.333Z,6.73
2018-11-23T17:52:20.918Z,7.10
2018-11-23T17:54:50.606Z,7.43
2018-11-23T17:57:20.197Z,7.60
2018-11-23T17:59:54.882Z,8.30
2018-11-23T18:02:26.612Z,8.97
2018-11-23T18:05:07.268Z,9.23
2018-11-23T18:07:30.851Z,9.13
2018-11-23T18:10:00.499Z,8.60
2018-11-23T18:12:30.204Z,11.83
2018-11-23T18:14:59.835Z,11.93
2018-11-23T18:17:29.514Z,10.53
2018-11-23T18:19:59.213Z,10.63
2018-11-23T18:22:33.847Z,10.70
2018-11-23T18:25:12.482Z,10.70
2018-11-23T18:27:43.060Z,9.23
2018-11-23T18:30:17.886Z,10.97
2018-11-23T18:32:47.629Z,8.27
2018-11-23T18:35:22.231Z,9.00
2018-11-23T18:37:51.875Z,9.53
2018-11-23T18:40:21.573Z,9.17
2018-11-23T18:42:51.462Z,9.63
2018-11-23T18:45:26.119Z,9.50
2018-11-23T18:47:55.747Z,11.37
2018-11-23T18:50:30.440Z,10.67
2018-11-23T18:53:00.158Z,9.13
2018-11-23T18:55:29.794Z,10.13
2018-11-23T18:57:59.491Z,10.50
2018-11-23T19:00:29.175Z,9.57
2018-11-23T19:02:58.798Z,10.13
2018-11-23T19:05:33.559Z,10.10
2018-11-23T19:08:03.175Z,9.97
2018-11-23T19:10:32.800Z,10.30
2018-11-23T19:13:02.811Z,10.57
2018-11-23T19:15:32.503Z,10.87
2018-11-23T19:18:02.163Z,11.57
2018-11-23T19:20:32.042Z,11.33
2018-11-23T19:23:06.735Z,11.30
2018-11-23T19:25:36.362Z,11.80
2018-11-23T19:28:06.002Z,11.30
2018-11-23T19:30:35.626Z,11.60
2018-11-23T19:33:05.436Z,11.80
2018-11-23T19:35:35.143Z,11.90
2018-11-23T19:38:04.990Z,11.53
2018-11-23T19:40:34.639Z,11.83
2018-11-23T19:43:04.763Z,12.30
2018-11-23T19:45:34.647Z,13.27
2018-11-23T19:48:04.979Z,13.53
2018-11-23T19:50:34.579Z,12.63
2018-11-23T19:53:04.261Z,12.53
2018-11-23T19:55:33.865Z,12.87
2018-11-23T19:58:03.527Z,13.77
2018-11-23T20:00:33.143Z,13.03
2018-11-23T20:03:02.771Z,12.73
2018-11-23T20:05:32.386Z,13.30
2018-11-23T20:08:02.795Z,13.43
2018-11-23T20:10:37.941Z,13.57
2018-11-23T20:13:07.567Z,13.90
2018-11-23T20:15:37.215Z,13.07
2018-11-23T20:18:06.990Z,14.40
2018-11-23T20:20:36.630Z,13.37
2018-11-23T20:23:06.294Z,12.93
2018-11-23T20:25:35.912Z,13.67
2018-11-23T20:28:05.651Z,14.67
2018-11-23T20:30:42.120Z,13.37
2018-11-23T20:33:05.067Z,14.63
2018-11-23T20:35:34.723Z,12.60
2018-11-23T20:38:04.492Z,13.50
2018-11-23T20:40:34.152Z,13.50
2018-11-23T20:43:03.862Z,13.00
2018-11-23T20:45:33.490Z,12.40
2018-11-23T20:48:08.196Z,13.53
2018-11-23T20:50:38.624Z,12.53
2018-11-23T20:53:08.229Z,12.77
2018-11-23T20:55:37.925Z,14.30
2018-11-23T20:58:07.647Z,14.07
2018-11-23T21:00:37.599Z,14.97
2018-11-23T21:03:07.785Z,12.50
2018-11-23T21:05:37.354Z,13.70
2018-11-23T21:08:12.117Z,14.20
2018-11-23T21:10:41.829Z,13.53
2018-11-23T21:13:11.431Z,13.40
2018-11-23T21:15:41.144Z,13.07
2018-11-23T21:18:10.769Z,13.90
2018-11-23T21:20:40.462Z,13.20
2018-11-23T21:23:10.172Z,12.70
2018-11-23T21:25:39.757Z,13.33
2018-11-23T21:28:09.373Z,12.50
2018-11-23T21:30:38.992Z,12.93
2018-11-23T21:33:08.630Z,13.87
2018-11-23T21:35:38.252Z,13.43
2018-11-23T21:38:07.897Z,13.37
2018-11-23T21:40:40.714Z,12.77
2018-11-23T21:43:07.151Z,13.77
2018-11-23T21:45:36.759Z,13.00
2018-11-23T21:48:06.573Z,13.97
2018-11-23T21:50:36.244Z,14.53
2018-11-23T21:53:10.895Z,13.77
2018-11-23T21:55:40.500Z,12.63
2018-11-23T21:58:10.200Z,13.47
2018-11-23T22:00:39.826Z,12.97
2018-11-23T22:03:09.692Z,13.17
2018-11-23T22:05:39.332Z,13.77
2018-11-23T22:08:08.967Z,13.43
2018-11-23T22:10:38.574Z,12.67
2018-11-23T22:13:08.217Z,13.30
2018-11-23T22:15:37.964Z,12.87
2018-11-23T22:18:07.642Z,13.87
2018-11-23T22:20:37.247Z,12.43
2018-11-23T22:23:06.914Z,12.93
2018-11-23T22:25:37.313Z,12.10
2018-11-23T22:28:06.926Z,12.70
2018-11-23T22:30:36.936Z,12.33
2018-11-23T22:33:06.523Z,12.63
2018-11-23T22:35:36.147Z,12.60
2018-11-23T22:38:05.803Z,13.30
2018-11-23T22:40:35.571Z,13.23
2018-11-23T22:43:06.012Z,13.43
2018-11-23T22:45:35.598Z,12.83
2018-11-23T22:48:05.313Z,13.63
2018-11-23T22:50:34.973Z,13.00
2018-11-23T22:53:04.631Z,12.80
2018-11-23T22:55:34.256Z,12.97
2018-11-23T22:58:03.883Z,13.83
2018-11-23T23:00:36.527Z,13.70
2018-11-23T23:03:06.461Z,13.57
2018-11-23T23:05:36.160Z,12.90
2018-11-23T23:08:06.239Z,13.87
2018-11-23T23:10:35.803Z,12.90
2018-11-23T23:13:10.498Z,11.87
2018-11-23T23:15:40.097Z,11.60
2018-11-23T23:18:09.722Z,11.27
2018-11-23T23:20:39.423Z,10.53
2018-11-23T23:23:09.029Z,10.40
2018-11-23T23:25:38.651Z,10.17
2018-11-23T23:28:13.367Z,10.00
2018-11-23T23:30:48.091Z,9.53
2018-11-23T23:33:17.703Z,10.73
2018-11-23T23:35:47.327Z,11.03
2018-11-23T23:38:16.951Z,11.60
2018-11-23T23:40:46.571Z,9.97
2018-11-23T23:43:16.271Z,11.10
2018-11-23T23:45:45.948Z,10.23
2018-11-23T23:48:15.586Z,9.97
2018-11-23T23:50:45.526Z,11.30
2018-11-23T23:53:15.150Z,10.60
2018-11-23T23:55:44.774Z,11.33
2018-11-23T23:58:14.382Z,11.80
